Current Weather

Charles De Gaulle

Charles De Gaulle, France (LFPG)

Report from: Monday, June 27, 2022 2:00 PM CEST
Current time: Monday, June 27, 2022 2:17 PM CEST

Nearby weather
Weather history
Weather forecast

Temperature22.0°C (71.6°F)
Dew point8.0°C (46.4°F)
Winds 13 kts (6.7 m/s, 15 mph) Vrb
Winds variableWinds variable from South (190°) to West (260°)
Clouds Sky clear
Altimeter30.06 in.Hg (1018 mB)
Relative humidity41 %
Density altitude811 ft. (247 m)
Remarks Ceiling and visibility OK
No significant changes expected in the next two hours
Flight conditions Visual Meteorological Conditions
Raw dataLFPG 271200Z 23013KT 190V260 CAVOK 22/08 Q1018 NOSIG
An error has occurred. This application may no longer respond until reloaded. Reload 🗙